Nearby METAR Reports

 

KBVO - Bartlesville, Oklahoma, USA
Distance from station: WNW 10mi, 16km
Updated: Wed, 24-Apr-2019 7:53pm CDT
Clear
Clear
 Wind from ENE
Wind: ENE 3 mph , 6 km/h
Temperature: 61°F , 16°C
Dew Point: 55°F , 13°C
Humidity: 83%
Barometer: 29.86 inHg , 1011.2 hPa
Clouds: Clear
Visibility: 10 miles , 16 km
2019/04/25 00:53 KBVO 250053Z AUTO 07003KT 10SM CLR 16/13 A2986 RMK AO2 SLP104 T01560128
KCFV - Coffeyville, Kansas, USA
Distance from station: NNE 31mi, 49km
Updated: Wed, 24-Apr-2019 7:52pm CDT
Overcast
Overcast
 Wind from NNE
Wind: NNE 5 mph , 7 km/h
Temperature: 61°F , 16°C
Dew Point: 54°F , 12°C
Humidity: 77%
Barometer: 29.83 inHg , 1010.2 hPa
Clouds: Overcast
Visibility: 9 miles , 14 km
Cloud details: Overcast 1700 ft
2019/04/25 00:52 KCFV 250052Z AUTO 02004KT 9SM OVC017 16/12 A2983 RMK AO2 SLP101 T01560122
 
KIDP - Independence, Kansas, USA
Distance from station: N 32mi, 52km
Updated: Wed, 24-Apr-2019 7:55pm CDT
Clear
Clear
 Wind from E
Wind: E 7 mph , 11 km/h
Temperature: 59°F , 15°C
Dew Point: 54°F , 12°C
Humidity: 82%
Barometer: 29.84 inHg , 1010.5 hPa
Clouds: Clear
Visibility: 10 miles , 16 km
2019/04/25 00:55 KIDP 250055Z AUTO 09006KT 10SM CLR 15/12 A2984 RMK AO2 T01460121
KGCM - Claremore, Oklahoma, USA
Distance from station: SE 35mi, 56km
Updated: Wed, 24-Apr-2019 7:55pm CDT
Mist, Overcast
Mist, Overcast
 Wind from calm
Wind: Calm
Temperature: 59°F , 15°C
Dew Point: 55°F , 13°C
Humidity: 88%
Barometer: 29.86 inHg , 1011.2 hPa
Summary: Mist
Clouds: Overcast
Visibility: 5 miles , 8 km
Cloud details: Overcast 1800 ft
2019/04/25 00:55 KGCM 250055Z AUTO 00000KT 5SM BR OVC018 15/13 A2986 RMK AO2
 
KTUL - Tulsa, Oklahoma, USA
Distance from station: S 35mi, 56km
Updated: Wed, 24-Apr-2019 7:53pm CDT
Overcast
Overcast
 Wind from calm
Wind: Calm
Temperature: 63°F , 17°C
Dew Point: 55°F , 13°C
Humidity: 77%
Barometer: 29.83 inHg , 1010.2 hPa
Clouds: Overcast
Visibility: 10 miles , 16 km
Cloud details: Overcast 2000 ft
2019/04/25 00:53 KTUL 250053Z 00000KT 10SM OVC020 17/13 A2983 RMK AO2 SLP099 T01670128
KRVS - Tulsa, Oklahoma, USA
Distance from station: S 46mi, 74km
Updated: Wed, 24-Apr-2019 7:53pm CDT
Overcast
Overcast
 Wind from calm
Wind: Calm
Temperature: 63°F , 17°C
Dew Point: 55°F , 13°C
Humidity: 77%
Barometer: 29.84 inHg , 1010.5 hPa
Clouds: Overcast
Visibility: 10 miles , 16 km
Cloud details: Mostly cloudy 2100 ft
Overcast 2500 ft
2019/04/25 00:53 KRVS 250053Z 00000KT 10SM BKN021 OVC025 17/13 A2984 RMK AO2 SLP112 T01670133
 
KPPF - Parsons, Kansas, USA
Distance from station: NNE 48mi, 76km
Updated: Wed, 24-Apr-2019 7:52pm CDT
Overcast
Overcast
 Wind from calm
Wind: Calm
Temperature: 61°F , 16°C
Dew Point: 54°F , 12°C
Humidity: 77%
Barometer: 29.85 inHg , 1010.8 hPa
Clouds: Overcast
Visibility: 10 miles , 16 km
Cloud details: Overcast 1500 ft
2019/04/25 00:52 KPPF 250052Z AUTO 00000KT 10SM OVC015 16/12 A2985 RMK AO2 SLP105 T01560122
KGMJ - Grove, Oklahoma, USA
Distance from station: E 63mi, 101km
Updated: Wed, 24-Apr-2019 7:55pm CDT
Overcast
Overcast
 Wind from calm
Wind: Calm
Temperature: 61°F , 16°C
Dew Point: 55°F , 13°C
Humidity: 83%
Barometer: 29.86 inHg , 1011.2 hPa
Clouds: Overcast
Visibility: 10 miles , 16 km
Cloud details: Mostly cloudy 1700 ft
Overcast 2200 ft
2019/04/25 00:55 KGMJ 250055Z AUTO 00000KT 10SM BKN017 OVC022 16/13 A2986 RMK AO2
 
KPNC - Ponca City, Oklahoma, USA
Distance from station: W 69mi, 111km
Updated: Wed, 24-Apr-2019 7:53pm CDT
Clear
Clear
 Wind from SSW
Wind: SSW 6 mph , 9 km/h
Temperature: 63°F , 17°C
Dew Point: 54°F , 12°C
Humidity: 73%
Barometer: 29.84 inHg , 1010.5 hPa
Clouds: Clear
Visibility: 10 miles , 16 km
2019/04/25 00:53 KPNC 250053Z AUTO 21005KT 10SM CLR 17/12 A2984 RMK AO2 SLP098 T01670117
KCNU - Chanute, Kansas, USA
Distance from station: NNE 69mi, 112km
Updated: Wed, 24-Apr-2019 7:52pm CDT
Few Clouds
Few Clouds
 Wind from SE
Wind: SE 6 mph , 9 km/h
Temperature: 59°F , 15°C
Dew Point: 52°F , 11°C
Humidity: 77%
Barometer: 29.85 inHg , 1010.8 hPa
Clouds: Few Clouds
Visibility: 9 miles , 14 km
Cloud details: Few Clouds 1500 ft
2019/04/25 00:52 KCNU 250052Z AUTO 13005KT 9SM FEW015 15/11 A2985 RMK AO2 SLP102 T01500111